createdAt,value
2022-08-31T00:00:51.737Z,7.15
2022-08-31T00:03:42.683Z,7.53
2022-08-31T00:06:12.057Z,7.10
2022-08-31T00:08:41.161Z,7.00
2022-08-31T00:11:14.241Z,6.30
2022-08-31T00:13:46.089Z,5.85
2022-08-31T00:16:15.390Z,6.32
2022-08-31T00:18:46.640Z,7.03
2022-08-31T00:21:20.861Z,6.15
2022-08-31T00:23:56.728Z,5.82
2022-08-31T00:26:26.634Z,5.85
2022-08-31T00:28:57.808Z,5.82
2022-08-31T00:31:27.168Z,5.63
2022-08-31T00:33:56.347Z,6.32
2022-08-31T00:36:27.090Z,5.85
2022-08-31T00:41:32.817Z,6.00
2022-08-31T00:44:11.555Z,5.60
2022-08-31T00:46:42.863Z,5.88
2022-08-31T00:49:15.422Z,5.75
2022-08-31T00:51:54.619Z,6.28
2022-08-31T00:54:32.218Z,5.35
2022-08-31T00:57:06.873Z,5.40
2022-08-31T00:59:40.000Z,6.22
2022-08-31T01:02:11.561Z,6.20
2022-08-31T01:04:47.155Z,6.30
2022-08-31T01:07:16.952Z,6.25
2022-08-31T01:09:55.429Z,5.63
2022-08-31T01:12:36.541Z,6.15
2022-08-31T01:15:15.508Z,5.80
2022-08-31T01:17:46.300Z,5.72
2022-08-31T01:20:23.424Z,6.22
2022-08-31T01:23:12.288Z,5.85
2022-08-31T01:25:45.022Z,5.68
2022-08-31T01:28:15.278Z,5.72
2022-08-31T01:30:46.361Z,5.72
2022-08-31T01:33:15.494Z,5.93
2022-08-31T01:35:52.057Z,5.97
2022-08-31T01:38:23.614Z,5.93
2022-08-31T01:41:01.528Z,6.18
2022-08-31T01:43:38.072Z,6.45
2022-08-31T01:48:46.611Z,6.18
2022-08-31T01:51:18.808Z,6.25
2022-08-31T01:53:58.292Z,6.38
2022-08-31T01:56:32.374Z,6.50
2022-08-31T01:59:10.195Z,6.50
2022-08-31T02:02:02.372Z,6.35
2022-08-31T02:04:39.066Z,7.25
2022-08-31T02:07:08.253Z,6.63
2022-08-31T02:09:39.348Z,7.18
2022-08-31T02:12:08.928Z,6.82
2022-08-31T02:14:47.587Z,7.15
2022-08-31T02:17:17.036Z,6.25
2022-08-31T02:19:46.259Z,7.03
2022-08-31T02:22:16.896Z,7.03
2022-08-31T02:24:48.077Z,6.65
2022-08-31T02:27:17.277Z,6.70
2022-08-31T02:29:46.599Z,7.15
2022-08-31T02:32:20.825Z,7.28
2022-08-31T02:34:50.164Z,6.97
2022-08-31T02:37:21.130Z,6.65
2022-08-31T02:39:52.904Z,6.82
2022-08-31T02:42:23.637Z,6.95
2022-08-31T02:45:10.458Z,6.60
2022-08-31T02:47:40.098Z,6.60
2022-08-31T02:50:16.712Z,6.75
2022-08-31T02:52:52.735Z,6.95
2022-08-31T02:55:24.342Z,6.38
2022-08-31T03:00:27.762Z,7.15
2022-08-31T03:02:57.107Z,7.13
2022-08-31T03:05:27.602Z,7.07
2022-08-31T03:07:56.936Z,7.22
2022-08-31T03:10:28.460Z,7.90
2022-08-31T03:15:29.655Z,6.72
2022-08-31T03:18:00.402Z,7.13
2022-08-31T03:20:35.911Z,6.95
2022-08-31T03:23:06.275Z,6.50
2022-08-31T03:25:39.587Z,6.28
2022-08-31T03:28:10.110Z,6.45
2022-08-31T03:30:42.858Z,6.43
2022-08-31T03:35:45.701Z,6.35
2022-08-31T03:38:17.585Z,6.47
2022-08-31T03:43:25.418Z,6.53
2022-08-31T03:45:55.696Z,6.15
2022-08-31T03:48:25.048Z,6.05
2022-08-31T03:50:54.134Z,6.18
2022-08-31T03:53:32.894Z,6.60
2022-08-31T03:56:08.492Z,6.07
2022-08-31T03:58:46.264Z,6.25
2022-08-31T04:01:32.748Z,5.90
2022-08-31T04:04:41.889Z,5.97
2022-08-31T04:07:42.558Z,6.25
2022-08-31T04:10:50.314Z,5.85
2022-08-31T04:13:44.900Z,5.78
2022-08-31T04:16:25.715Z,5.80
2022-08-31T04:19:15.576Z,5.65
2022-08-31T04:21:59.405Z,5.15
2022-08-31T04:24:35.358Z,5.55
2022-08-31T04:27:04.899Z,5.93
2022-08-31T04:29:36.001Z,5.50
2022-08-31T04:34:56.073Z,5.40
2022-08-31T04:37:27.515Z,5.13
2022-08-31T04:39:59.121Z,4.90
2022-08-31T04:45:01.025Z,5.03
2022-08-31T04:47:33.291Z,5.20
2022-08-31T04:50:02.582Z,5.60
2022-08-31T04:52:37.671Z,5.57
2022-08-31T04:55:08.442Z,4.82
2022-08-31T04:57:38.150Z,5.27
2022-08-31T05:00:14.254Z,5.30
2022-08-31T05:03:17.646Z,4.35
2022-08-31T05:05:50.374Z,4.68
2022-08-31T05:08:25.594Z,4.85
2022-08-31T05:10:54.900Z,4.38
2022-08-31T05:13:24.307Z,4.72
2022-08-31T05:15:57.767Z,4.63
2022-08-31T05:18:27.401Z,4.80
2022-08-31T05:21:00.059Z,4.57
2022-08-31T05:23:30.011Z,4.57
2022-08-31T05:25:59.918Z,4.03
2022-08-31T05:28:30.756Z,3.73
2022-08-31T05:31:08.066Z,4.90
2022-08-31T05:33:44.466Z,4.05
2022-08-31T05:36:22.249Z,4.22
2022-08-31T05:38:55.571Z,4.13
2022-08-31T05:41:29.245Z,4.32
2022-08-31T05:43:58.521Z,4.63
2022-08-31T05:46:29.869Z,4.72
2022-08-31T05:48:59.835Z,5.00
2022-08-31T05:51:28.975Z,3.97
2022-08-31T05:54:00.734Z,3.38
2022-08-31T05:56:30.808Z,4.45
2022-08-31T05:59:00.077Z,4.10
2022-08-31T06:01:34.623Z,3.95
2022-08-31T06:04:10.436Z,3.70
2022-08-31T06:06:45.366Z,4.50
2022-08-31T06:09:16.644Z,4.65
2022-08-31T06:11:47.542Z,4.70
2022-08-31T06:14:22.445Z,4.00
2022-08-31T06:17:04.811Z,4.32
2022-08-31T06:19:38.426Z,4.35
2022-08-31T06:22:09.164Z,4.15
2022-08-31T06:24:38.924Z,4.28
2022-08-31T06:27:09.955Z,4.28
2022-08-31T06:29:41.747Z,4.40
2022-08-31T06:32:15.357Z,4.85
2022-08-31T06:34:52.865Z,4.35
2022-08-31T06:37:47.124Z,3.78
2022-08-31T06:40:29.605Z,3.77
2022-08-31T06:43:28.147Z,3.70
2022-08-31T06:46:04.117Z,3.30
2022-08-31T06:48:56.250Z,2.75
2022-08-31T06:51:26.470Z,3.47
2022-08-31T06:53:56.052Z,3.85
2022-08-31T06:56:54.845Z,3.42
2022-08-31T06:59:54.328Z,3.67
2022-08-31T07:02:42.872Z,3.10
2022-08-31T07:05:19.882Z,3.28
2022-08-31T07:07:49.659Z,3.38
2022-08-31T07:10:19.074Z,3.17
2022-08-31T07:12:48.391Z,3.05
2022-08-31T07:15:17.665Z,3.38
2022-08-31T07:17:49.370Z,2.75
2022-08-31T07:20:28.320Z,2.97
2022-08-31T07:22:57.931Z,3.03
2022-08-31T07:25:35.039Z,2.90
2022-08-31T07:28:10.685Z,3.15
2022-08-31T07:30:42.327Z,3.20
2022-08-31T07:33:14.484Z,3.38
2022-08-31T07:35:57.045Z,3.92
2022-08-31T07:39:06.001Z,3.85
2022-08-31T07:41:50.273Z,3.20
2022-08-31T07:44:20.800Z,2.83
2022-08-31T07:46:55.568Z,3.00
2022-08-31T07:49:26.276Z,2.90
2022-08-31T07:52:14.767Z,2.45
2022-08-31T07:55:08.916Z,3.03
2022-08-31T07:57:53.536Z,2.70
2022-08-31T08:00:26.348Z,2.55
2022-08-31T08:03:07.273Z,2.60
2022-08-31T08:05:55.943Z,2.30
2022-08-31T08:09:21.613Z,2.33
2022-08-31T08:12:04.470Z,1.90
2022-08-31T08:14:46.728Z,2.33
2022-08-31T08:17:39.168Z,2.97
2022-08-31T08:20:14.522Z,2.28
2022-08-31T08:22:55.679Z,2.58
2022-08-31T08:25:43.155Z,2.67
2022-08-31T08:28:39.715Z,2.50
2022-08-31T08:31:18.026Z,2.08
2022-08-31T08:33:49.029Z,2.20
2022-08-31T08:36:24.133Z,2.33
2022-08-31T08:38:56.894Z,2.13
2022-08-31T08:41:38.675Z,2.70
2022-08-31T08:44:11.845Z,2.50
2022-08-31T08:46:56.040Z,2.25
2022-08-31T08:49:39.854Z,2.38
2022-08-31T08:52:14.451Z,2.78
2022-08-31T08:54:56.030Z,2.45
2022-08-31T08:57:36.012Z,2.40
2022-08-31T09:00:12.478Z,2.28
2022-08-31T09:02:51.322Z,2.08
2022-08-31T09:05:49.468Z,2.15
2022-08-31T09:09:04.700Z,1.92
2022-08-31T09:11:46.165Z,1.90
2022-08-31T09:14:29.827Z,2.00
2022-08-31T09:17:06.634Z,2.00
2022-08-31T09:19:56.731Z,2.80
2022-08-31T09:22:26.175Z,2.35
2022-08-31T09:24:59.190Z,2.35
2022-08-31T09:27:56.981Z,2.33
2022-08-31T09:30:42.901Z,1.90
2022-08-31T09:33:19.952Z,1.95
2022-08-31T09:35:56.302Z,1.85
2022-08-31T09:38:33.721Z,1.90
2022-08-31T09:41:03.514Z,1.50
2022-08-31T09:43:38.223Z,1.75
2022-08-31T09:46:12.249Z,1.63
2022-08-31T09:48:51.057Z,1.80
2022-08-31T09:51:27.802Z,1.90
2022-08-31T09:54:11.122Z,1.70
2022-08-31T09:56:54.982Z,1.45
2022-08-31T09:59:43.749Z,1.50
2022-08-31T10:02:38.118Z,1.70
2022-08-31T10:05:25.988Z,1.80
2022-08-31T10:08:03.883Z,1.33
2022-08-31T10:10:36.725Z,1.30
2022-08-31T10:13:18.435Z,1.63
2022-08-31T10:15:57.483Z,1.30
2022-08-31T10:18:37.719Z,1.20
2022-08-31T10:21:10.910Z,1.10
2022-08-31T10:23:53.897Z,1.40
2022-08-31T10:26:31.294Z,1.50
2022-08-31T10:29:05.831Z,1.60
2022-08-31T10:31:44.611Z,1.30
2022-08-31T10:34:42.699Z,1.20
2022-08-31T10:37:18.029Z,0.95
2022-08-31T10:39:50.423Z,1.38
2022-08-31T10:42:26.780Z,1.40
2022-08-31T10:45:00.365Z,1.25
2022-08-31T10:47:41.151Z,1.40
2022-08-31T10:50:20.104Z,0.80
2022-08-31T10:53:02.360Z,1.27
2022-08-31T10:55:39.133Z,0.85
2022-08-31T10:58:20.148Z,1.17
2022-08-31T11:00:55.466Z,1.20
2022-08-31T11:03:45.071Z,1.45
2022-08-31T11:06:34.324Z,1.27
2022-08-31T11:09:17.973Z,1.60
2022-08-31T11:11:51.552Z,1.70
2022-08-31T11:14:50.113Z,1.63
2022-08-31T11:17:43.368Z,1.60
2022-08-31T11:20:23.463Z,1.58
2022-08-31T11:23:28.626Z,1.48
2022-08-31T11:26:36.755Z,1.23
2022-08-31T11:29:16.195Z,1.70
2022-08-31T11:31:46.357Z,1.50
2022-08-31T11:34:25.323Z,1.75
2022-08-31T11:36:57.065Z,1.40
2022-08-31T11:39:51.009Z,1.70
2022-08-31T11:43:00.629Z,1.73
2022-08-31T11:45:37.097Z,1.60
2022-08-31T11:48:11.904Z,1.48
2022-08-31T11:51:06.782Z,1.45
2022-08-31T11:53:40.711Z,1.00
2022-08-31T11:56:14.069Z,0.93
2022-08-31T11:58:49.830Z,1.20
2022-08-31T12:01:42.736Z,1.38
2022-08-31T12:04:46.279Z,1.10
2022-08-31T12:07:20.265Z,1.30
2022-08-31T12:10:27.522Z,1.00
2022-08-31T12:13:24.013Z,1.33
2022-08-31T12:16:19.492Z,1.05
2022-08-31T12:19:00.705Z,1.20
2022-08-31T12:21:55.250Z,1.00
2022-08-31T12:24:49.144Z,1.10
2022-08-31T12:27:34.001Z,1.00
2022-08-31T12:30:20.638Z,1.20
2022-08-31T12:32:59.632Z,1.40
2022-08-31T12:35:30.643Z,1.00
2022-08-31T12:38:05.070Z,0.80
2022-08-31T12:40:37.102Z,0.70
2022-08-31T12:43:22.424Z,0.60
2022-08-31T12:46:23.705Z,1.00
2022-08-31T12:49:15.444Z,0.73
2022-08-31T12:57:27.144Z,1.10
2022-08-31T13:00:03.846Z,0.80
2022-08-31T13:05:20.863Z,0.70
2022-08-31T13:07:55.456Z,0.90
2022-08-31T13:10:33.439Z,0.45
2022-08-31T13:13:11.791Z,0.60
2022-08-31T13:15:44.857Z,0.70
2022-08-31T13:18:16.455Z,0.73
2022-08-31T13:23:23.989Z,0.40
2022-08-31T13:26:05.873Z,0.50
2022-08-31T13:28:37.553Z,0.40
2022-08-31T13:31:09.689Z,0.57
2022-08-31T13:33:41.233Z,0.73
2022-08-31T13:36:23.617Z,0.40
2022-08-31T13:38:54.841Z,0.30
2022-08-31T13:41:28.240Z,0.60
2022-08-31T13:44:02.854Z,0.50
2022-08-31T13:46:44.706Z,0.50
2022-08-31T13:49:30.899Z,0.70
2022-08-31T13:52:07.579Z,0.45
2022-08-31T13:54:38.485Z,0.90
2022-08-31T13:57:22.354Z,0.57
2022-08-31T14:00:20.236Z,0.60
2022-08-31T14:02:55.532Z,0.40
2022-08-31T14:05:31.682Z,0.50
2022-08-31T14:08:04.398Z,0.50
2022-08-31T14:10:38.688Z,0.60
2022-08-31T14:13:20.979Z,0.30
2022-08-31T14:15:56.287Z,0.50
2022-08-31T14:18:29.221Z,0.63
2022-08-31T14:21:22.288Z,0.88
2022-08-31T14:24:00.608Z,0.93
2022-08-31T14:26:31.726Z,0.80
2022-08-31T14:29:09.247Z,0.38
2022-08-31T14:31:48.100Z,0.50
2022-08-31T14:34:26.901Z,0.52
2022-08-31T14:37:01.891Z,0.50
2022-08-31T14:39:34.114Z,0.85
2022-08-31T14:42:11.300Z,0.40
2022-08-31T14:44:44.319Z,0.43
2022-08-31T14:47:15.434Z,0.73
2022-08-31T14:49:45.015Z,0.50
2022-08-31T14:52:16.035Z,0.40
2022-08-31T14:54:50.272Z,0.40
2022-08-31T14:57:25.127Z,0.30
2022-08-31T14:59:57.160Z,0.77
2022-08-31T15:02:32.918Z,0.30
2022-08-31T15:05:05.908Z,0.20
2022-08-31T15:07:37.152Z,0.30
2022-08-31T15:10:08.409Z,0.40
2022-08-31T15:12:37.731Z,0.40
2022-08-31T15:15:10.659Z,0.35
2022-08-31T15:17:42.798Z,0.40
2022-08-31T15:20:22.889Z,0.52
2022-08-31T15:22:52.655Z,0.73
2022-08-31T15:25:25.790Z,0.30
2022-08-31T15:27:55.059Z,0.43
2022-08-31T15:30:24.416Z,0.40
2022-08-31T15:32:56.725Z,0.80
2022-08-31T15:35:29.767Z,0.40
2022-08-31T15:38:06.104Z,0.47
2022-08-31T15:40:39.002Z,0.40
2022-08-31T15:43:15.464Z,0.40
2022-08-31T15:45:44.985Z,0.40
2022-08-31T15:48:29.143Z,0.68
2022-08-31T15:50:59.696Z,0.50
2022-08-31T15:53:31.964Z,0.50
2022-08-31T15:58:40.872Z,0.70
2022-08-31T16:01:15.614Z,0.70
2022-08-31T16:03:56.780Z,0.85
2022-08-31T16:06:32.188Z,0.50
2022-08-31T16:09:04.021Z,1.95
2022-08-31T16:11:36.988Z,1.90
2022-08-31T16:14:10.636Z,3.05
2022-08-31T16:16:42.929Z,1.30
2022-08-31T16:19:34.510Z,1.80
2022-08-31T16:22:07.215Z,1.33
2022-08-31T16:24:42.752Z,1.23
2022-08-31T16:27:16.400Z,1.20
2022-08-31T16:29:46.399Z,0.60
2022-08-31T16:32:15.812Z,0.52
2022-08-31T16:34:47.352Z,0.63
2022-08-31T16:37:16.649Z,0.50
2022-08-31T16:39:47.885Z,0.60
2022-08-31T16:42:18.180Z,0.50
2022-08-31T16:44:48.901Z,0.30
2022-08-31T16:47:20.361Z,0.40
2022-08-31T16:49:51.261Z,0.52
2022-08-31T16:52:23.808Z,0.80
2022-08-31T16:54:55.825Z,0.20
2022-08-31T16:57:27.752Z,0.50
2022-08-31T16:59:58.903Z,1.05
2022-08-31T17:02:33.203Z,0.50
2022-08-31T17:05:09.899Z,0.50
2022-08-31T17:07:42.358Z,0.50
2022-08-31T17:10:12.380Z,0.40
2022-08-31T17:12:42.867Z,0.50
2022-08-31T17:15:13.742Z,0.40
2022-08-31T17:17:47.779Z,0.50
2022-08-31T17:20:21.290Z,0.40
2022-08-31T17:22:50.635Z,0.55
2022-08-31T17:25:21.073Z,0.60
2022-08-31T17:27:59.363Z,0.40
2022-08-31T17:30:31.884Z,0.57
2022-08-31T17:33:01.240Z,0.88
2022-08-31T17:35:33.144Z,0.45
2022-08-31T17:38:03.002Z,0.47
2022-08-31T17:40:32.385Z,0.60
2022-08-31T17:43:04.420Z,0.40
2022-08-31T17:45:34.149Z,0.52
2022-08-31T17:48:04.037Z,0.45
2022-08-31T17:50:36.165Z,0.65
2022-08-31T17:53:06.167Z,0.52
2022-08-31T17:55:35.618Z,0.70
2022-08-31T17:58:05.840Z,0.40
2022-08-31T18:00:36.362Z,0.30
2022-08-31T18:03:10.877Z,0.50
2022-08-31T18:05:46.039Z,0.68
2022-08-31T18:08:16.135Z,0.40
2022-08-31T18:10:52.085Z,0.70
2022-08-31T18:13:24.301Z,0.47
2022-08-31T18:15:54.881Z,0.30
2022-08-31T18:18:24.782Z,0.20
2022-08-31T18:20:56.655Z,0.40
2022-08-31T18:23:26.448Z,0.20
2022-08-31T18:25:55.792Z,0.43
2022-08-31T18:28:25.525Z,0.50
2022-08-31T18:30:55.536Z,0.20
2022-08-31T18:33:25.254Z,0.40
2022-08-31T18:36:08.105Z,0.20
2022-08-31T18:38:38.067Z,0.55
2022-08-31T18:41:26.204Z,0.30
2022-08-31T18:44:09.361Z,0.50
2022-08-31T18:46:39.395Z,0.38
2022-08-31T18:49:14.220Z,0.40
2022-08-31T18:51:46.201Z,0.47
2022-08-31T18:54:22.968Z,0.30
2022-08-31T18:56:53.243Z,0.38
2022-08-31T18:59:23.705Z,0.40
2022-08-31T19:01:53.680Z,0.38
2022-08-31T19:04:24.215Z,0.45
2022-08-31T19:06:57.853Z,0.47
2022-08-31T19:09:32.523Z,0.38
2022-08-31T19:12:04.516Z,0.30
2022-08-31T19:14:37.846Z,0.50
2022-08-31T19:17:07.905Z,0.77
2022-08-31T19:19:37.756Z,0.50
2022-08-31T19:22:09.732Z,0.40
2022-08-31T19:24:40.734Z,0.47
2022-08-31T19:27:16.042Z,0.40
2022-08-31T19:29:45.750Z,0.30
2022-08-31T19:32:16.665Z,0.40
2022-08-31T19:34:48.059Z,0.43
2022-08-31T19:37:20.209Z,0.30
2022-08-31T19:39:49.967Z,0.30
2022-08-31T19:42:21.570Z,0.40
2022-08-31T19:47:41.500Z,0.20
2022-08-31T19:50:14.701Z,0.50
2022-08-31T19:52:51.815Z,0.50
2022-08-31T19:55:21.223Z,0.32
2022-08-31T19:57:50.866Z,0.30
2022-08-31T20:00:21.206Z,0.30
2022-08-31T20:02:51.022Z,0.30
2022-08-31T20:05:26.379Z,0.32
2022-08-31T20:08:00.302Z,0.38
2022-08-31T20:10:34.979Z,0.40
2022-08-31T20:13:04.534Z,0.30
2022-08-31T20:15:42.198Z,0.40
2022-08-31T20:18:13.259Z,0.40
2022-08-31T20:23:22.341Z,0.40
2022-08-31T20:25:56.522Z,0.43
2022-08-31T20:28:27.180Z,0.60
2022-08-31T20:30:59.630Z,0.40
2022-08-31T20:33:29.901Z,0.38
2022-08-31T20:35:59.070Z,0.40
2022-08-31T20:38:39.771Z,0.32
2022-08-31T20:41:09.337Z,0.50
2022-08-31T20:43:39.211Z,0.30
2022-08-31T20:46:30.250Z,0.32
2022-08-31T20:49:17.649Z,0.52
2022-08-31T20:51:47.143Z,0.40
2022-08-31T20:54:19.142Z,0.40
2022-08-31T20:56:56.041Z,0.57
2022-08-31T20:59:25.814Z,0.50
2022-08-31T21:01:58.848Z,0.52
2022-08-31T21:04:29.466Z,0.50
2022-08-31T21:07:02.028Z,0.32
2022-08-31T21:09:33.413Z,0.30
2022-08-31T21:12:03.548Z,0.40
2022-08-31T21:14:34.532Z,0.40
2022-08-31T21:17:10.830Z,0.40
2022-08-31T21:19:41.506Z,0.47
2022-08-31T21:22:12.718Z,0.38
2022-08-31T21:24:44.801Z,0.40
2022-08-31T21:27:21.449Z,0.60
2022-08-31T21:29:50.989Z,0.40
2022-08-31T21:32:20.107Z,0.65
2022-08-31T21:37:32.767Z,0.30
2022-08-31T21:40:04.276Z,0.40
2022-08-31T21:42:40.022Z,0.63
2022-08-31T21:45:10.576Z,0.55
2022-08-31T21:47:39.721Z,0.50
2022-08-31T21:50:10.962Z,0.50
2022-08-31T21:52:45.186Z,0.40
2022-08-31T21:55:17.662Z,0.60
2022-08-31T21:57:51.907Z,0.55
2022-08-31T22:00:33.961Z,0.47
2022-08-31T22:03:04.622Z,0.70
2022-08-31T22:05:44.262Z,0.50
2022-08-31T22:08:13.748Z,0.50
2022-08-31T22:10:45.965Z,0.50
2022-08-31T22:13:21.576Z,0.50
2022-08-31T22:15:56.203Z,0.50
2022-08-31T22:18:59.057Z,0.50
2022-08-31T22:21:24.673Z,0.40
2022-08-31T22:23:55.741Z,0.52
2022-08-31T22:26:41.863Z,0.50
2022-08-31T22:29:14.062Z,0.40
2022-08-31T22:31:44.169Z,0.50
2022-08-31T22:34:13.585Z,0.50
2022-08-31T22:36:50.371Z,0.80
2022-08-31T22:39:23.139Z,0.50
2022-08-31T22:41:54.969Z,0.60
2022-08-31T22:44:26.694Z,0.80
2022-08-31T22:49:30.565Z,0.70
2022-08-31T22:51:59.763Z,0.88
2022-08-31T22:54:29.131Z,0.85
2022-08-31T22:57:00.202Z,0.57
2022-08-31T22:59:30.137Z,0.80
2022-08-31T23:02:03.199Z,0.90
2022-08-31T23:04:35.009Z,0.50
2022-08-31T23:07:05.443Z,0.60
2022-08-31T23:12:07.866Z,0.47
2022-08-31T23:14:41.043Z,0.80
2022-08-31T23:17:11.048Z,0.68
2022-08-31T23:19:48.329Z,0.80
2022-08-31T23:22:18.077Z,0.75
2022-08-31T23:24:57.902Z,1.10
2022-08-31T23:27:29.757Z,0.65
2022-08-31T23:30:08.292Z,0.70
2022-08-31T23:32:37.856Z,0.82
2022-08-31T23:35:08.430Z,0.70
2022-08-31T23:37:37.991Z,0.70
2022-08-31T23:40:14.266Z,1.02
2022-08-31T23:45:15.780Z,0.70
2022-08-31T23:47:44.830Z,0.82
2022-08-31T23:52:53.648Z,0.70
2022-08-31T23:55:30.672Z,0.52
2022-08-31T23:58:02.103Z,0.60
